createdAt,value
2017-10-06T06:02:44.762Z,12.52
2017-10-06T06:05:13.690Z,12.62
2017-10-06T06:07:42.044Z,12.55
2017-10-06T06:10:10.491Z,12.60
2017-10-06T06:12:40.288Z,12.56
2017-10-06T06:15:08.638Z,12.51
2017-10-06T06:17:37.463Z,12.48
2017-10-06T06:20:06.111Z,12.43
2017-10-06T06:22:35.618Z,12.54
2017-10-06T06:25:04.792Z,12.60
2017-10-06T06:27:33.139Z,12.69
2017-10-06T06:30:02.239Z,12.85
2017-10-06T06:32:31.385Z,12.98
2017-10-06T06:34:59.740Z,13.65
2017-10-06T06:37:28.467Z,13.50
2017-10-06T06:39:56.897Z,13.13
2017-10-06T06:42:25.267Z,13.04
2017-10-06T06:44:54.381Z,13.23
2017-10-06T06:47:22.901Z,12.91
2017-10-06T06:49:52.849Z,12.99
2017-10-06T06:52:21.920Z,12.81
2017-10-06T06:54:50.280Z,12.69
2017-10-06T06:57:18.617Z,12.84
2017-10-06T06:59:48.329Z,13.01
2017-10-06T07:02:17.474Z,12.87
2017-10-06T07:04:46.297Z,12.96
2017-10-06T07:07:16.083Z,12.94
2017-10-06T07:09:45.049Z,12.78
2017-10-06T07:12:13.405Z,12.80
2017-10-06T07:14:42.516Z,12.95
2017-10-06T07:17:10.889Z,12.65
2017-10-06T07:19:40.009Z,12.91
2017-10-06T07:22:08.493Z,13.06
2017-10-06T07:24:36.852Z,13.19
2017-10-06T07:27:06.187Z,13.28
2017-10-06T07:29:35.443Z,13.23
2017-10-06T07:32:04.497Z,13.15
2017-10-06T07:34:32.862Z,13.20
2017-10-06T07:37:01.273Z,13.25
2017-10-06T07:39:29.940Z,13.12
2017-10-06T07:41:58.296Z,13.35
2017-10-06T07:44:26.645Z,13.64
2017-10-06T07:46:55.918Z,13.84
2017-10-06T07:49:24.322Z,13.69
2017-10-06T07:51:54.748Z,13.47
2017-10-06T07:54:23.447Z,13.51
2017-10-06T07:56:52.126Z,13.46
2017-10-06T07:59:20.497Z,13.47
2017-10-06T08:01:50.438Z,13.22
2017-10-06T08:04:18.765Z,13.52
2017-10-06T08:06:47.133Z,13.66
2017-10-06T08:09:16.067Z,13.81
2017-10-06T08:11:46.228Z,13.97
2017-10-06T08:14:14.838Z,13.70
2017-10-06T08:16:43.369Z,13.78
2017-10-06T08:19:12.442Z,13.89
2017-10-06T08:21:42.341Z,13.81
2017-10-06T08:24:10.790Z,13.84
2017-10-06T08:26:39.585Z,13.74
2017-10-06T08:29:08.886Z,13.65
2017-10-06T08:31:37.260Z,14.34
2017-10-06T08:34:06.238Z,15.09
2017-10-06T08:36:34.581Z,16.54
2017-10-06T08:39:03.342Z,16.27
2017-10-06T08:41:32.223Z,15.43
2017-10-06T08:44:00.559Z,15.05
2017-10-06T08:46:28.929Z,14.91
2017-10-06T08:48:57.279Z,14.74
2017-10-06T08:51:25.627Z,15.04
2017-10-06T08:53:54.344Z,15.17
2017-10-06T08:56:22.725Z,15.21
2017-10-06T08:58:51.087Z,15.29
2017-10-06T09:01:19.946Z,15.18
2017-10-06T09:03:48.997Z,15.20
2017-10-06T09:06:18.101Z,14.49
2017-10-06T09:08:47.464Z,14.70
2017-10-06T09:11:15.809Z,14.85
2017-10-06T09:13:45.016Z,14.94
2017-10-06T09:16:13.398Z,15.25
2017-10-06T09:18:41.725Z,15.36
2017-10-06T09:21:10.665Z,15.47
2017-10-06T09:23:40.282Z,15.46
2017-10-06T09:26:08.894Z,15.38
2017-10-06T09:28:37.235Z,15.57
2017-10-06T09:31:05.643Z,15.82
2017-10-06T09:33:33.993Z,15.71
2017-10-06T09:36:03.362Z,16.02
2017-10-06T09:38:32.495Z,16.32
2017-10-06T09:41:00.891Z,16.35
2017-10-06T09:43:30.761Z,16.98
2017-10-06T09:45:59.454Z,16.98
2017-10-06T09:48:28.372Z,16.75
2017-10-06T09:50:57.399Z,16.68
2017-10-06T09:53:25.764Z,16.54
2017-10-06T09:55:54.405Z,16.58
2017-10-06T09:58:23.576Z,17.26
2017-10-06T10:00:52.725Z,17.58
2017-10-06T10:03:21.062Z,18.80
2017-10-06T10:05:49.406Z,21.04
2017-10-06T10:08:17.940Z,23.46
2017-10-06T10:10:47.070Z,24.37
2017-10-06T10:13:15.412Z,25.49
2017-10-06T10:15:43.786Z,26.18
2017-10-06T10:18:12.387Z,25.05
2017-10-06T10:20:41.161Z,25.81
2017-10-06T10:23:11.115Z,28.09
2017-10-06T10:25:39.911Z,29.56
2017-10-06T10:28:08.854Z,31.81
2017-10-06T10:30:39.063Z,32.24
2017-10-06T10:33:07.417Z,32.46
2017-10-06T10:35:35.750Z,31.39
2017-10-06T10:38:04.129Z,30.41
2017-10-06T10:40:32.487Z,27.62
2017-10-06T10:43:02.395Z,25.71
2017-10-06T10:45:32.334Z,25.33
2017-10-06T10:48:00.695Z,23.43
2017-10-06T10:50:29.751Z,22.64
2017-10-06T10:52:58.784Z,22.24
2017-10-06T10:55:27.901Z,24.33
2017-10-06T10:57:57.002Z,25.55
2017-10-06T11:00:27.169Z,24.26
2017-10-06T11:02:55.514Z,24.18
2017-10-06T11:05:23.949Z,25.13
2017-10-06T11:07:53.109Z,25.30
2017-10-06T11:10:23.789Z,26.50
2017-10-06T11:12:52.908Z,25.86
2017-10-06T11:15:21.339Z,24.69
2017-10-06T11:17:50.475Z,23.61
2017-10-06T11:20:19.958Z,22.38
2017-10-06T11:22:48.470Z,21.80
2017-10-06T11:25:17.569Z,21.64
2017-10-06T11:27:45.961Z,22.04
2017-10-06T11:30:14.856Z,20.06
2017-10-06T11:32:43.192Z,20.06
2017-10-06T11:35:13.228Z,21.35
2017-10-06T11:37:43.449Z,23.23
2017-10-06T11:40:11.844Z,25.96
2017-10-06T11:42:40.963Z,28.65
2017-10-06T11:45:10.095Z,29.86
2017-10-06T11:47:38.441Z,29.55
2017-10-06T11:50:07.613Z,29.62
2017-10-06T11:52:36.014Z,29.51
2017-10-06T11:55:05.140Z,31.04
2017-10-06T11:57:33.599Z,32.17
2017-10-06T12:00:03.257Z,32.96
2017-10-06T12:02:31.586Z,33.39
2017-10-06T12:05:00.659Z,32.73
2017-10-06T12:07:29.268Z,33.91
2017-10-06T12:09:57.595Z,33.35
2017-10-06T12:12:28.333Z,33.07
2017-10-06T12:14:58.174Z,31.57
2017-10-06T12:17:28.194Z,31.21
2017-10-06T12:19:56.542Z,30.43
2017-10-06T12:22:26.342Z,29.72
2017-10-06T12:24:54.697Z,29.82
2017-10-06T12:27:23.037Z,31.52
2017-10-06T12:29:51.424Z,30.81
2017-10-06T12:32:20.003Z,31.19
2017-10-06T12:34:48.350Z,33.04
2017-10-06T12:37:18.018Z,31.24
2017-10-06T12:39:46.382Z,28.77
2017-10-06T12:42:15.459Z,26.55
2017-10-06T12:44:44.201Z,24.99
2017-10-06T12:47:12.920Z,23.87
2017-10-06T12:49:41.286Z,22.65
2017-10-06T12:52:10.441Z,21.73
2017-10-06T12:54:39.430Z,21.29
2017-10-06T12:57:07.793Z,20.74
2017-10-06T12:59:36.964Z,19.84
2017-10-06T13:02:06.077Z,19.73
2017-10-06T13:04:34.458Z,20.12
2017-10-06T13:07:03.373Z,22.26
2017-10-06T13:09:32.707Z,24.35
2017-10-06T13:12:01.678Z,24.03
2017-10-06T13:14:30.464Z,22.84
2017-10-06T13:16:59.973Z,21.83
2017-10-06T13:19:28.391Z,21.43
2017-10-06T13:21:56.762Z,20.85
2017-10-06T13:24:25.107Z,21.67
2017-10-06T13:26:53.446Z,22.49
2017-10-06T13:29:21.919Z,22.29
2017-10-06T13:31:50.287Z,22.31
2017-10-06T13:34:20.290Z,22.33
2017-10-06T13:36:50.049Z,22.11
2017-10-06T13:39:19.887Z,21.91
2017-10-06T13:41:49.050Z,21.69
2017-10-06T13:44:17.425Z,22.78
2017-10-06T13:46:47.333Z,22.45
2017-10-06T13:49:16.837Z,21.77
2017-10-06T13:51:47.139Z,21.17
2017-10-06T13:54:15.501Z,20.78
2017-10-06T13:56:44.154Z,20.67
2017-10-06T13:59:12.525Z,20.33
2017-10-06T14:01:40.872Z,19.96
2017-10-06T14:04:10.720Z,19.66
2017-10-06T14:06:39.418Z,19.47
2017-10-06T14:09:07.769Z,19.41
2017-10-06T14:11:36.177Z,19.58
2017-10-06T14:14:04.631Z,19.69
2017-10-06T14:16:33.212Z,20.38
2017-10-06T14:19:02.325Z,20.29
2017-10-06T14:21:30.901Z,20.42
2017-10-06T14:23:59.244Z,21.33
2017-10-06T14:26:27.590Z,21.60
2017-10-06T14:28:55.966Z,22.24
2017-10-06T14:31:25.566Z,22.12
2017-10-06T14:33:53.931Z,21.79
2017-10-06T14:36:22.361Z,21.59
2017-10-06T14:38:51.127Z,21.77
2017-10-06T14:41:20.489Z,21.65
2017-10-06T14:43:50.297Z,21.59
2017-10-06T14:46:18.642Z,21.29
2017-10-06T14:48:47.402Z,21.12
2017-10-06T14:51:16.599Z,20.56
2017-10-06T14:53:46.345Z,20.48
2017-10-06T14:56:14.950Z,20.45
2017-10-06T14:58:44.170Z,20.21
2017-10-06T15:01:13.291Z,20.26
2017-10-06T15:03:41.646Z,21.31
2017-10-06T15:06:10.260Z,22.71
2017-10-06T15:08:39.662Z,23.51
2017-10-06T15:11:08.004Z,23.49
2017-10-06T15:13:36.370Z,24.12
2017-10-06T15:16:04.714Z,23.42
2017-10-06T15:18:33.909Z,23.94
2017-10-06T15:21:02.542Z,24.28
2017-10-06T15:23:31.660Z,23.92
2017-10-06T15:26:00.717Z,22.72
2017-10-06T15:28:32.191Z,22.17
2017-10-06T15:31:00.534Z,21.60
2017-10-06T15:33:29.150Z,21.08
2017-10-06T15:35:58.403Z,20.38
2017-10-06T15:38:26.814Z,19.98
2017-10-06T15:40:55.970Z,19.67
2017-10-06T15:43:25.004Z,19.51
2017-10-06T15:45:54.378Z,19.29
2017-10-06T15:48:23.388Z,19.48
2017-10-06T15:50:52.526Z,19.43
2017-10-06T15:53:21.499Z,19.17
2017-10-06T15:55:49.882Z,19.11
2017-10-06T15:58:19.379Z,19.15
2017-10-06T16:00:48.489Z,19.03
2017-10-06T16:03:17.621Z,18.91
2017-10-06T16:05:47.398Z,18.86
2017-10-06T16:08:15.786Z,18.67
2017-10-06T16:10:45.077Z,18.51
2017-10-06T16:13:14.210Z,18.47
2017-10-06T16:15:43.468Z,18.19
2017-10-06T16:18:12.571Z,18.03
2017-10-06T16:20:41.742Z,18.12
2017-10-06T16:23:11.702Z,17.94
2017-10-06T16:25:40.773Z,17.90
2017-10-06T16:28:09.198Z,17.75
2017-10-06T16:30:37.534Z,17.52
2017-10-06T16:33:06.270Z,17.60
2017-10-06T16:35:35.430Z,17.62
2017-10-06T16:38:05.299Z,17.39
2017-10-06T16:40:33.696Z,17.34
2017-10-06T16:43:02.772Z,17.22
2017-10-06T16:45:31.113Z,17.08
2017-10-06T16:47:59.988Z,16.91
2017-10-06T16:50:28.826Z,16.90
2017-10-06T16:52:57.177Z,16.82
2017-10-06T16:55:26.032Z,16.62
2017-10-06T16:57:55.195Z,16.49
2017-10-06T17:00:23.773Z,16.56
2017-10-06T17:02:52.141Z,16.36
2017-10-06T17:05:20.632Z,16.16
2017-10-06T17:07:49.757Z,15.92
2017-10-06T17:10:18.095Z,15.90
2017-10-06T17:12:47.297Z,15.97
2017-10-06T17:15:15.622Z,15.84
2017-10-06T17:17:43.988Z,15.83
2017-10-06T17:20:12.689Z,15.77
2017-10-06T17:22:42.793Z,15.92
2017-10-06T17:25:11.137Z,15.87
2017-10-06T17:27:39.494Z,15.81
2017-10-06T17:30:09.104Z,15.83
2017-10-06T17:32:38.235Z,15.69
2017-10-06T17:35:06.672Z,15.63
2017-10-06T17:37:35.781Z,15.60
2017-10-06T17:46:41.720Z,14.31
2017-10-06T17:49:10.071Z,14.61
2017-10-06T17:51:38.551Z,14.76
2017-10-06T17:54:08.871Z,14.89
2017-10-06T17:56:37.268Z,14.97
2017-10-06T17:59:05.629Z,14.76
2017-10-06T18:01:34.013Z,14.91
2017-10-06T18:04:02.366Z,15.01
2017-10-06T18:06:30.712Z,14.87
2017-10-06T18:08:59.911Z,14.83
2017-10-06T18:11:28.983Z,14.82
2017-10-06T18:13:57.336Z,14.74
2017-10-06T18:16:25.853Z,14.58
2017-10-06T18:18:55.447Z,14.59
2017-10-06T18:21:23.818Z,14.64
2017-10-06T18:23:52.903Z,14.49
2017-10-06T18:26:21.506Z,14.60
2017-10-06T18:28:49.896Z,14.74
2017-10-06T18:31:18.542Z,14.67
2017-10-06T18:33:48.617Z,14.67
2017-10-06T18:36:16.992Z,14.60
2017-10-06T18:38:45.999Z,14.55
2017-10-06T18:41:14.393Z,14.47
2017-10-06T18:43:43.510Z,14.57
2017-10-06T18:46:13.214Z,14.66
2017-10-06T18:48:41.559Z,14.61
2017-10-06T18:51:09.907Z,14.68
2017-10-06T18:53:38.321Z,14.64
2017-10-06T18:56:06.691Z,14.62
2017-10-06T18:58:35.053Z,14.56
2017-10-06T19:01:04.498Z,14.43
2017-10-06T19:03:32.866Z,14.53
2017-10-06T19:06:01.579Z,14.44
2017-10-06T19:08:30.055Z,14.50
2017-10-06T19:10:59.099Z,14.43
2017-10-06T19:13:27.454Z,14.32
2017-10-06T19:15:55.917Z,14.48
2017-10-06T19:18:24.279Z,14.54
2017-10-06T19:20:52.667Z,14.55
2017-10-06T19:23:21.576Z,14.52
2017-10-06T19:25:49.942Z,14.36
2017-10-06T19:28:20.635Z,14.24
2017-10-06T19:30:49.843Z,14.13
2017-10-06T19:33:18.245Z,14.15
2017-10-06T19:35:47.389Z,14.26
2017-10-06T19:38:15.754Z,14.20
2017-10-06T19:40:44.104Z,14.21
2017-10-06T19:43:13.225Z,14.18
2017-10-06T19:45:42.217Z,14.02
2017-10-06T19:48:10.575Z,14.05
2017-10-06T19:50:38.952Z,13.96
2017-10-06T19:55:42.183Z,14.03
2017-10-06T19:58:11.443Z,14.15
2017-10-06T20:03:14.093Z,14.12
2017-10-06T20:23:41.423Z,13.67
2017-10-06T20:28:43.513Z,13.85
2017-10-06T20:33:46.739Z,13.78
2017-10-06T20:43:59.223Z,13.60
2017-10-06T20:46:27.962Z,13.37
2017-10-06T20:54:04.803Z,13.58
2017-10-06T21:01:42.549Z,13.86
2017-10-06T21:04:10.904Z,13.85
2017-10-06T21:06:39.294Z,13.80
2017-10-06T21:11:42.459Z,13.79
2017-10-06T21:14:11.958Z,13.68
2017-10-06T21:19:15.263Z,13.72
2017-10-06T21:26:51.581Z,13.71
2017-10-06T21:29:22.042Z,13.78
2017-10-06T21:31:50.404Z,13.76
2017-10-06T21:34:18.763Z,13.70
2017-10-06T21:36:47.474Z,13.84
2017-10-06T21:41:50.798Z,13.99
2017-10-06T21:46:53.932Z,14.03
2017-10-06T21:49:22.751Z,14.06
2017-10-06T21:54:24.783Z,14.16
2017-10-06T22:07:12.637Z,14.13
2017-10-06T22:09:41.017Z,14.08
2017-10-06T22:12:09.363Z,13.97
2017-10-06T22:17:13.518Z,13.76
2017-10-06T22:19:42.711Z,13.62
2017-10-06T22:22:11.076Z,13.40
2017-10-06T22:24:39.850Z,13.35
2017-10-06T22:27:08.222Z,13.31
2017-10-06T22:34:46.564Z,13.21
2017-10-06T22:39:50.852Z,13.39
2017-10-06T22:42:20.269Z,13.48
2017-10-06T22:47:22.264Z,13.44
2017-10-06T22:52:25.707Z,13.47
2017-10-06T23:02:35.332Z,13.86
2017-10-06T23:05:04.364Z,13.79
2017-10-06T23:07:32.706Z,13.86
2017-10-06T23:10:01.699Z,13.81
2017-10-06T23:12:30.047Z,13.77
2017-10-06T23:22:40.767Z,13.97
2017-10-06T23:25:09.919Z,14.03
2017-10-06T23:35:20.413Z,14.41
2017-10-06T23:37:49.221Z,14.34
2017-10-06T23:42:52.499Z,14.47
2017-10-06T23:45:20.852Z,14.54
2017-10-06T23:47:49.225Z,14.44
2017-10-06T23:52:52.260Z,14.28
